Silifke, Turkey
Current Conditions -  °F | °C
As of 4:20 PM on Sunday 21 Dec 2014 (Local Time) from LTAF Reporting Station
Scattered Clouds Scattered Clouds  
Wind Chill: 59°   Ceiling: Unl
Heat Index: 59°   Visibility: 6mi
Dew Point: 48°   Wind: 5mph
Humidity: 67%   Direction: 220°SW
Pressure: 30.06"   Gusts: NA
Location:  36.37°N, 33.93°E
Report Text: LTAF 211420Z 22004KT 9999 SCT035 15/09 Q1018 BECMG TL1600 4000 BR
Loading
Personal Weather Stations






























Interactive Weather Map New forecast layout! Learn more

10-Day Weather Forecast

Advertisements
Track Severe Weather on mobile